sensor_id;sensor_type;location;lat;lon;timestamp;temperature;humidity
36416;DHT22;22447;44.530;18.620;2023-02-26T00:00:07;5.20;99.90
36416;DHT22;22447;44.530;18.620;2023-02-26T00:02:36;5.20;99.90
36416;DHT22;22447;44.530;18.620;2023-02-26T00:05:04;5.10;99.90
36416;DHT22;22447;44.530;18.620;2023-02-26T00:07:30;5.20;99.90
36416;DHT22;22447;44.530;18.620;2023-02-26T00:09:56;5.20;99.90
36416;DHT22;22447;44.530;18.620;2023-02-26T00:12:22;5.20;99.90
36416;DHT22;22447;44.530;18.620;2023-02-26T00:14:49;5.10;99.90
36416;DHT22;22447;44.530;18.620;2023-02-26T00:18:12;5.20;99.90
36416;DHT22;22447;44.530;18.620;2023-02-26T00:20:36;5.20;99.90
36416;DHT22;22447;44.530;18.620;2023-02-26T00:23:03;5.30;99.90
36416;DHT22;22447;44.530;18.620;2023-02-26T00:25:29;5.20;99.90
36416;DHT22;22447;44.530;18.620;2023-02-26T00:27:55;5.20;99.90
36416;DHT22;22447;44.530;18.620;2023-02-26T00:30:22;5.20;99.90
36416;DHT22;22447;44.530;18.620;2023-02-26T00:32:49;5.10;99.90
36416;DHT22;22447;44.530;18.620;2023-02-26T00:35:15;5.20;99.90
36416;DHT22;22447;44.530;18.620;2023-02-26T00:40:34;5.20;99.90
36416;DHT22;22447;44.530;18.620;2023-02-26T00:43:06;5.20;99.90
36416;DHT22;22447;44.530;18.620;2023-02-26T00:45:33;5.30;99.90
36416;DHT22;22447;44.530;18.620;2023-02-26T00:48:06;5.10;99.90
36416;DHT22;22447;44.530;18.620;2023-02-26T00:50:35;5.10;99.90
36416;DHT22;22447;44.530;18.620;2023-02-26T00:55:34;5.10;99.90
36416;DHT22;22447;44.530;18.620;2023-02-26T00:58:00;5.10;99.90
36416;DHT22;22447;44.530;18.620;2023-02-26T01:00:28;5.10;99.90
36416;DHT22;22447;44.530;18.620;2023-02-26T01:02:55;5.10;99.90
36416;DHT22;22447;44.530;18.620;2023-02-26T01:05:22;5.10;99.90
36416;DHT22;22447;44.530;18.620;2023-02-26T01:08:19;5.10;99.90
36416;DHT22;22447;44.530;18.620;2023-02-26T01:10:48;5.10;99.90
36416;DHT22;22447;44.530;18.620;2023-02-26T01:13:14;5.10;99.90
36416;DHT22;22447;44.530;18.620;2023-02-26T01:15:43;5.10;99.90
36416;DHT22;22447;44.530;18.620;2023-02-26T01:18:29;5.00;99.90
36416;DHT22;22447;44.530;18.620;2023-02-26T01:21:03;4.90;99.90
36416;DHT22;22447;44.530;18.620;2023-02-26T01:23:33;4.90;99.90
36416;DHT22;22447;44.530;18.620;2023-02-26T01:26:05;4.90;99.90
36416;DHT22;22447;44.530;18.620;2023-02-26T01:28:35;4.90;99.90
36416;DHT22;22447;44.530;18.620;2023-02-26T01:31:04;4.90;99.90
36416;DHT22;22447;44.530;18.620;2023-02-26T01:33:51;5.00;99.90
36416;DHT22;22447;44.530;18.620;2023-02-26T01:36:27;5.00;99.90
36416;DHT22;22447;44.530;18.620;2023-02-26T01:39:10;5.00;99.90
36416;DHT22;22447;44.530;18.620;2023-02-26T01:47:12;4.90;99.90
36416;DHT22;22447;44.530;18.620;2023-02-26T01:49:40;4.70;99.90
36416;DHT22;22447;44.530;18.620;2023-02-26T01:54:55;4.80;99.90
36416;DHT22;22447;44.530;18.620;2023-02-26T01:57:21;4.80;99.90
36416;DHT22;22447;44.530;18.620;2023-02-26T01:59:49;4.80;99.90
36416;DHT22;22447;44.530;18.620;2023-02-26T02:02:20;4.70;99.90
36416;DHT22;22447;44.530;18.620;2023-02-26T02:04:47;4.70;99.90
36416;DHT22;22447;44.530;18.620;2023-02-26T02:07:14;4.60;99.90
36416;DHT22;22447;44.530;18.620;2023-02-26T02:09:41;4.60;99.90
36416;DHT22;22447;44.530;18.620;2023-02-26T02:12:34;4.60;99.90
36416;DHT22;22447;44.530;18.620;2023-02-26T02:15:26;4.60;99.90
36416;DHT22;22447;44.530;18.620;2023-02-26T02:36:58;4.60;99.90
36416;DHT22;22447;44.530;18.620;2023-02-26T02:39:30;4.40;99.90
36416;DHT22;22447;44.530;18.620;2023-02-26T02:42:05;4.40;99.90
36416;DHT22;22447;44.530;18.620;2023-02-26T02:44:40;4.40;99.90
36416;DHT22;22447;44.530;18.620;2023-02-26T02:47:09;4.30;99.90
36416;DHT22;22447;44.530;18.620;2023-02-26T02:49:51;4.10;99.90
36416;DHT22;22447;44.530;18.620;2023-02-26T02:52:29;4.20;99.90
36416;DHT22;22447;44.530;18.620;2023-02-26T02:55:21;4.10;99.90
36416;DHT22;22447;44.530;18.620;2023-02-26T02:57:57;4.10;99.90
36416;DHT22;22447;44.530;18.620;2023-02-26T03:00:26;3.90;99.90
36416;DHT22;22447;44.530;18.620;2023-02-26T03:02:56;3.80;99.90
36416;DHT22;22447;44.530;18.620;2023-02-26T03:05:24;3.80;99.90
36416;DHT22;22447;44.530;18.620;2023-02-26T03:08:02;3.70;99.90
36416;DHT22;22447;44.530;18.620;2023-02-26T03:10:30;3.60;99.90
36416;DHT22;22447;44.530;18.620;2023-02-26T03:12:56;3.50;99.90
36416;DHT22;22447;44.530;18.620;2023-02-26T03:15:41;3.50;99.90
36416;DHT22;22447;44.530;18.620;2023-02-26T03:18:18;3.40;99.90
36416;DHT22;22447;44.530;18.620;2023-02-26T03:20:58;3.30;99.90
36416;DHT22;22447;44.530;18.620;2023-02-26T03:23:30;3.00;99.90
36416;DHT22;22447;44.530;18.620;2023-02-26T03:26:13;2.90;99.90
36416;DHT22;22447;44.530;18.620;2023-02-26T03:28:50;2.80;99.90
36416;DHT22;22447;44.530;18.620;2023-02-26T03:31:34;2.80;99.90
36416;DHT22;22447;44.530;18.620;2023-02-26T03:34:12;2.80;99.90
36416;DHT22;22447;44.530;18.620;2023-02-26T03:36:50;2.70;99.90
36416;DHT22;22447;44.530;18.620;2023-02-26T03:47:15;2.40;99.90
36416;DHT22;22447;44.530;18.620;2023-02-26T03:49:44;2.40;99.90
36416;DHT22;22447;44.530;18.620;2023-02-26T03:52:11;2.30;99.90
36416;DHT22;22447;44.530;18.620;2023-02-26T03:57:52;2.40;99.90
36416;DHT22;22447;44.530;18.620;2023-02-26T04:00:34;2.30;99.90
36416;DHT22;22447;44.530;18.620;2023-02-26T04:03:33;2.40;99.90
36416;DHT22;22447;44.530;18.620;2023-02-26T04:06:01;2.40;99.90
36416;DHT22;22447;44.530;18.620;2023-02-26T04:08:27;2.30;99.90
36416;DHT22;22447;44.530;18.620;2023-02-26T04:11:14;2.20;99.90
36416;DHT22;22447;44.530;18.620;2023-02-26T04:13:44;2.20;99.90
36416;DHT22;22447;44.530;18.620;2023-02-26T04:16:12;2.20;99.90
36416;DHT22;22447;44.530;18.620;2023-02-26T04:18:38;2.10;99.90
36416;DHT22;22447;44.530;18.620;2023-02-26T04:21:06;2.10;99.90
36416;DHT22;22447;44.530;18.620;2023-02-26T04:23:35;2.10;99.90
36416;DHT22;22447;44.530;18.620;2023-02-26T04:26:01;2.10;99.90
36416;DHT22;22447;44.530;18.620;2023-02-26T04:28:28;2.10;99.90
36416;DHT22;22447;44.530;18.620;2023-02-26T04:30:55;2.10;99.90
36416;DHT22;22447;44.530;18.620;2023-02-26T04:33:21;2.10;99.90
36416;DHT22;22447;44.530;18.620;2023-02-26T04:35:48;2.00;99.90
36416;DHT22;22447;44.530;18.620;2023-02-26T04:38:15;2.00;99.90
36416;DHT22;22447;44.530;18.620;2023-02-26T04:40:41;2.10;99.90
36416;DHT22;22447;44.530;18.620;2023-02-26T04:43:11;2.10;99.90
36416;DHT22;22447;44.530;18.620;2023-02-26T04:45:46;2.20;99.90
36416;DHT22;22447;44.530;18.620;2023-02-26T04:48:13;2.20;99.90
36416;DHT22;22447;44.530;18.620;2023-02-26T04:50:40;2.30;99.90
36416;DHT22;22447;44.530;18.620;2023-02-26T04:53:06;2.30;99.90
36416;DHT22;22447;44.530;18.620;2023-02-26T04:55:34;2.30;99.90
36416;DHT22;22447;44.530;18.620;2023-02-26T04:58:01;2.30;99.90
36416;DHT22;22447;44.530;18.620;2023-02-26T05:00:27;2.20;99.90
36416;DHT22;22447;44.530;18.620;2023-02-26T05:02:53;2.00;99.90
36416;DHT22;22447;44.530;18.620;2023-02-26T05:05:19;2.00;99.90
36416;DHT22;22447;44.530;18.620;2023-02-26T05:07:46;2.10;99.90
36416;DHT22;22447;44.530;18.620;2023-02-26T05:10:14;2.10;99.90
36416;DHT22;22447;44.530;18.620;2023-02-26T05:12:40;2.20;99.90
36416;DHT22;22447;44.530;18.620;2023-02-26T05:15:06;2.20;99.90
36416;DHT22;22447;44.530;18.620;2023-02-26T05:17:32;2.20;99.90
36416;DHT22;22447;44.530;18.620;2023-02-26T05:19:58;2.10;99.90
36416;DHT22;22447;44.530;18.620;2023-02-26T05:22:25;2.00;99.90
36416;DHT22;22447;44.530;18.620;2023-02-26T05:24:51;2.00;99.90
36416;DHT22;22447;44.530;18.620;2023-02-26T05:27:17;2.00;99.90
36416;DHT22;22447;44.530;18.620;2023-02-26T05:29:45;2.00;99.90
36416;DHT22;22447;44.530;18.620;2023-02-26T05:32:13;2.10;99.90
36416;DHT22;22447;44.530;18.620;2023-02-26T05:34:39;2.00;99.90
36416;DHT22;22447;44.530;18.620;2023-02-26T05:37:05;2.00;99.90
36416;DHT22;22447;44.530;18.620;2023-02-26T05:39:31;2.00;99.90
36416;DHT22;22447;44.530;18.620;2023-02-26T05:41:57;1.90;99.90
36416;DHT22;22447;44.530;18.620;2023-02-26T05:44:22;1.90;99.90
36416;DHT22;22447;44.530;18.620;2023-02-26T05:46:48;1.80;99.90
36416;DHT22;22447;44.530;18.620;2023-02-26T05:49:14;1.90;99.90
36416;DHT22;22447;44.530;18.620;2023-02-26T05:51:40;2.00;99.90
36416;DHT22;22447;44.530;18.620;2023-02-26T05:54:08;1.90;99.90
36416;DHT22;22447;44.530;18.620;2023-02-26T05:56:34;2.00;99.90
36416;DHT22;22447;44.530;18.620;2023-02-26T05:59:01;2.00;99.90
36416;DHT22;22447;44.530;18.620;2023-02-26T06:01:27;2.00;99.90
36416;DHT22;22447;44.530;18.620;2023-02-26T06:03:53;2.00;99.90
36416;DHT22;22447;44.530;18.620;2023-02-26T06:06:19;2.00;99.90
36416;DHT22;22447;44.530;18.620;2023-02-26T06:08:46;2.10;99.90
36416;DHT22;22447;44.530;18.620;2023-02-26T06:11:12;2.10;99.90
36416;DHT22;22447;44.530;18.620;2023-02-26T06:13:39;2.10;99.90
36416;DHT22;22447;44.530;18.620;2023-02-26T06:16:05;2.00;99.90
36416;DHT22;22447;44.530;18.620;2023-02-26T06:18:31;2.00;99.90
36416;DHT22;22447;44.530;18.620;2023-02-26T06:20:59;1.90;99.90
36416;DHT22;22447;44.530;18.620;2023-02-26T06:23:25;1.90;99.90
36416;DHT22;22447;44.530;18.620;2023-02-26T06:25:52;2.00;99.90
36416;DHT22;22447;44.530;18.620;2023-02-26T06:28:18;2.10;99.90
36416;DHT22;22447;44.530;18.620;2023-02-26T06:30:44;2.00;99.90
36416;DHT22;22447;44.530;18.620;2023-02-26T06:33:10;1.90;99.90
36416;DHT22;22447;44.530;18.620;2023-02-26T06:35:36;1.90;99.90
36416;DHT22;22447;44.530;18.620;2023-02-26T06:38:03;1.90;99.90
36416;DHT22;22447;44.530;18.620;2023-02-26T06:40:29;1.90;99.90
36416;DHT22;22447;44.530;18.620;2023-02-26T06:42:55;1.80;99.90
36416;DHT22;22447;44.530;18.620;2023-02-26T06:45:22;1.90;99.90
36416;DHT22;22447;44.530;18.620;2023-02-26T06:47:50;1.90;99.90
36416;DHT22;22447;44.530;18.620;2023-02-26T06:50:16;1.90;99.90
36416;DHT22;22447;44.530;18.620;2023-02-26T06:52:42;1.90;99.90
36416;DHT22;22447;44.530;18.620;2023-02-26T06:55:09;1.90;99.90
36416;DHT22;22447;44.530;18.620;2023-02-26T06:57:35;1.90;99.90
36416;DHT22;22447;44.530;18.620;2023-02-26T07:00:02;1.90;99.90
36416;DHT22;22447;44.530;18.620;2023-02-26T07:02:29;1.80;99.90
36416;DHT22;22447;44.530;18.620;2023-02-26T07:04:55;1.90;99.90
36416;DHT22;22447;44.530;18.620;2023-02-26T07:07:20;1.90;99.90
36416;DHT22;22447;44.530;18.620;2023-02-26T07:09:46;1.90;99.90
36416;DHT22;22447;44.530;18.620;2023-02-26T07:12:13;2.00;99.90
36416;DHT22;22447;44.530;18.620;2023-02-26T07:14:39;1.90;99.90
36416;DHT22;22447;44.530;18.620;2023-02-26T07:17:05;2.00;99.90
36416;DHT22;22447;44.530;18.620;2023-02-26T07:19:30;2.00;99.90
36416;DHT22;22447;44.530;18.620;2023-02-26T07:21:56;2.00;99.90
36416;DHT22;22447;44.530;18.620;2023-02-26T07:24:22;2.00;99.90
36416;DHT22;22447;44.530;18.620;2023-02-26T07:26:48;2.00;99.90
36416;DHT22;22447;44.530;18.620;2023-02-26T07:29:15;2.10;99.90
36416;DHT22;22447;44.530;18.620;2023-02-26T07:31:41;2.10;99.90
36416;DHT22;22447;44.530;18.620;2023-02-26T07:34:07;2.10;99.90
36416;DHT22;22447;44.530;18.620;2023-02-26T07:36:32;2.10;99.90
36416;DHT22;22447;44.530;18.620;2023-02-26T07:38:58;2.20;99.90
36416;DHT22;22447;44.530;18.620;2023-02-26T07:41:24;2.20;99.90
36416;DHT22;22447;44.530;18.620;2023-02-26T07:43:50;2.20;99.90
36416;DHT22;22447;44.530;18.620;2023-02-26T07:46:16;2.30;99.90
36416;DHT22;22447;44.530;18.620;2023-02-26T07:48:42;2.30;99.90
36416;DHT22;22447;44.530;18.620;2023-02-26T07:51:08;2.30;99.90
36416;DHT22;22447;44.530;18.620;2023-02-26T07:53:35;2.20;99.90
36416;DHT22;22447;44.530;18.620;2023-02-26T07:56:01;2.20;99.90
36416;DHT22;22447;44.530;18.620;2023-02-26T07:58:27;2.30;99.90
36416;DHT22;22447;44.530;18.620;2023-02-26T08:00:53;2.40;99.90
36416;DHT22;22447;44.530;18.620;2023-02-26T08:03:20;2.20;99.90
36416;DHT22;22447;44.530;18.620;2023-02-26T08:05:46;2.20;99.90
36416;DHT22;22447;44.530;18.620;2023-02-26T08:08:12;2.20;99.90
36416;DHT22;22447;44.530;18.620;2023-02-26T08:10:38;2.20;99.90
36416;DHT22;22447;44.530;18.620;2023-02-26T08:13:06;2.30;99.90
36416;DHT22;22447;44.530;18.620;2023-02-26T08:15:32;2.30;99.90
36416;DHT22;22447;44.530;18.620;2023-02-26T08:17:58;2.30;99.90
36416;DHT22;22447;44.530;18.620;2023-02-26T08:20:24;2.30;99.90
36416;DHT22;22447;44.530;18.620;2023-02-26T08:22:50;2.30;99.90
36416;DHT22;22447;44.530;18.620;2023-02-26T08:25:17;2.40;99.90
36416;DHT22;22447;44.530;18.620;2023-02-26T08:27:43;2.40;99.90
36416;DHT22;22447;44.530;18.620;2023-02-26T08:30:09;2.40;99.90
36416;DHT22;22447;44.530;18.620;2023-02-26T08:32:36;2.50;99.90
36416;DHT22;22447;44.530;18.620;2023-02-26T08:35:05;2.50;99.90
36416;DHT22;22447;44.530;18.620;2023-02-26T08:37:31;2.60;99.90
36416;DHT22;22447;44.530;18.620;2023-02-26T08:39:57;2.60;99.90
36416;DHT22;22447;44.530;18.620;2023-02-26T09:30:07;3.30;99.90
36416;DHT22;22447;44.530;18.620;2023-02-26T09:32:33;3.70;99.90
36416;DHT22;22447;44.530;18.620;2023-02-26T09:34:59;3.70;99.90
36416;DHT22;22447;44.530;18.620;2023-02-26T09:37:25;3.70;99.90
36416;DHT22;22447;44.530;18.620;2023-02-26T09:39:51;3.80;99.90
36416;DHT22;22447;44.530;18.620;2023-02-26T09:43:01;4.00;99.90
36416;DHT22;22447;44.530;18.620;2023-02-26T09:45:35;4.30;99.90
36416;DHT22;22447;44.530;18.620;2023-02-26T09:48:04;4.00;99.90
36416;DHT22;22447;44.530;18.620;2023-02-26T09:55:49;4.50;99.90
36416;DHT22;22447;44.530;18.620;2023-02-26T09:58:30;4.60;99.90
36416;DHT22;22447;44.530;18.620;2023-02-26T10:07:02;4.70;99.90
36416;DHT22;22447;44.530;18.620;2023-02-26T10:17:37;4.90;99.90
36416;DHT22;22447;44.530;18.620;2023-02-26T10:25:37;5.20;99.90
36416;DHT22;22447;44.530;18.620;2023-02-26T10:31:17;5.20;99.90
36416;DHT22;22447;44.530;18.620;2023-02-26T10:36:57;5.40;99.90
36416;DHT22;22447;44.530;18.620;2023-02-26T10:42:04;5.40;99.90
36416;DHT22;22447;44.530;18.620;2023-02-26T10:45:34;5.60;99.90
36416;DHT22;22447;44.530;18.620;2023-02-26T10:50:11;5.30;99.90
36416;DHT22;22447;44.530;18.620;2023-02-26T10:52:38;5.30;99.90
36416;DHT22;22447;44.530;18.620;2023-02-26T10:55:32;5.20;99.90
36416;DHT22;22447;44.530;18.620;2023-02-26T10:58:04;5.30;99.90
36416;DHT22;22447;44.530;18.620;2023-02-26T11:00:31;5.40;99.90
36416;DHT22;22447;44.530;18.620;2023-02-26T11:03:01;5.40;99.90
36416;DHT22;22447;44.530;18.620;2023-02-26T11:05:30;5.20;99.90
36416;DHT22;22447;44.530;18.620;2023-02-26T11:08:00;5.30;99.90
36416;DHT22;22447;44.530;18.620;2023-02-26T11:11:33;5.30;99.90
36416;DHT22;22447;44.530;18.620;2023-02-26T11:13:33;5.30;99.90
36416;DHT22;22447;44.530;18.620;2023-02-26T11:16:05;5.40;99.90
36416;DHT22;22447;44.530;18.620;2023-02-26T11:18:54;5.40;99.90
36416;DHT22;22447;44.530;18.620;2023-02-26T11:21:29;5.60;99.90
36416;DHT22;22447;44.530;18.620;2023-02-26T11:24:02;5.60;99.90
36416;DHT22;22447;44.530;18.620;2023-02-26T11:26:36;5.70;99.90
36416;DHT22;22447;44.530;18.620;2023-02-26T11:29:03;5.90;99.90
36416;DHT22;22447;44.530;18.620;2023-02-26T11:31:31;5.90;99.90
36416;DHT22;22447;44.530;18.620;2023-02-26T11:34:07;5.90;99.90
36416;DHT22;22447;44.530;18.620;2023-02-26T11:36:39;5.80;99.90
36416;DHT22;22447;44.530;18.620;2023-02-26T11:39:17;5.60;99.90
36416;DHT22;22447;44.530;18.620;2023-02-26T11:41:46;6.00;99.90
36416;DHT22;22447;44.530;18.620;2023-02-26T11:44:19;5.90;99.90
36416;DHT22;22447;44.530;18.620;2023-02-26T11:46:56;6.00;99.90
36416;DHT22;22447;44.530;18.620;2023-02-26T11:49:24;6.20;99.90
36416;DHT22;22447;44.530;18.620;2023-02-26T11:52:16;6.20;99.90
36416;DHT22;22447;44.530;18.620;2023-02-26T11:54:44;6.30;99.90
36416;DHT22;22447;44.530;18.620;2023-02-26T11:57:24;6.10;99.90
36416;DHT22;22447;44.530;18.620;2023-02-26T11:59:52;6.00;99.90
36416;DHT22;22447;44.530;18.620;2023-02-26T12:02:24;5.70;99.90
36416;DHT22;22447;44.530;18.620;2023-02-26T12:04:56;5.80;99.90
36416;DHT22;22447;44.530;18.620;2023-02-26T12:07:22;5.90;99.90
36416;DHT22;22447;44.530;18.620;2023-02-26T12:09:49;5.70;99.90
36416;DHT22;22447;44.530;18.620;2023-02-26T12:15:26;5.60;99.90
36416;DHT22;22447;44.530;18.620;2023-02-26T12:18:09;5.50;99.90
36416;DHT22;22447;44.530;18.620;2023-02-26T12:23:56;5.20;99.90
36416;DHT22;22447;44.530;18.620;2023-02-26T12:29:20;5.10;99.90
36416;DHT22;22447;44.530;18.620;2023-02-26T12:43:15;5.10;99.90
36416;DHT22;22447;44.530;18.620;2023-02-26T12:48:40;4.90;99.90
36416;DHT22;22447;44.530;18.620;2023-02-26T12:56:49;5.00;99.90
36416;DHT22;22447;44.530;18.620;2023-02-26T13:02:18;5.30;99.90
36416;DHT22;22447;44.530;18.620;2023-02-26T13:15:48;5.10;99.90
36416;DHT22;22447;44.530;18.620;2023-02-26T13:18:33;5.30;99.90
36416;DHT22;22447;44.530;18.620;2023-02-26T13:21:25;5.10;99.90
36416;DHT22;22447;44.530;18.620;2023-02-26T13:24:01;5.20;99.90
36416;DHT22;22447;44.530;18.620;2023-02-26T13:26:30;5.00;99.90
36416;DHT22;22447;44.530;18.620;2023-02-26T13:29:04;5.10;99.90
36416;DHT22;22447;44.530;18.620;2023-02-26T13:34:16;4.90;99.90
36416;DHT22;22447;44.530;18.620;2023-02-26T13:36:44;4.80;99.90
36416;DHT22;22447;44.530;18.620;2023-02-26T13:42:06;4.70;99.90
36416;DHT22;22447;44.530;18.620;2023-02-26T13:52:52;4.50;99.90
36416;DHT22;22447;44.530;18.620;2023-02-26T13:55:46;4.60;99.90
36416;DHT22;22447;44.530;18.620;2023-02-26T14:01:13;5.10;99.90
36416;DHT22;22447;44.530;18.620;2023-02-26T14:08:52;4.80;99.90
36416;DHT22;22447;44.530;18.620;2023-02-26T14:11:37;4.90;99.90
36416;DHT22;22447;44.530;18.620;2023-02-26T14:31:19;4.80;99.90
36416;DHT22;22447;44.530;18.620;2023-02-26T14:37:16;4.30;99.90
36416;DHT22;22447;44.530;18.620;2023-02-26T14:39:34;4.10;99.90
36416;DHT22;22447;44.530;18.620;2023-02-26T14:42:17;4.20;99.90
36416;DHT22;22447;44.530;18.620;2023-02-26T14:44:49;4.30;99.90
36416;DHT22;22447;44.530;18.620;2023-02-26T14:47:18;4.20;99.90
36416;DHT22;22447;44.530;18.620;2023-02-26T14:49:45;4.20;99.90
36416;DHT22;22447;44.530;18.620;2023-02-26T15:00:33;3.90;99.90
36416;DHT22;22447;44.530;18.620;2023-02-26T15:08:54;3.60;99.90
36416;DHT22;22447;44.530;18.620;2023-02-26T15:11:43;3.70;99.90
36416;DHT22;22447;44.530;18.620;2023-02-26T15:14:23;3.70;99.90
36416;DHT22;22447;44.530;18.620;2023-02-26T15:19:59;3.50;99.90
36416;DHT22;22447;44.530;18.620;2023-02-26T15:24:53;3.50;99.90
36416;DHT22;22447;44.530;18.620;2023-02-26T15:27:20;3.50;99.90
36416;DHT22;22447;44.530;18.620;2023-02-26T15:29:47;3.30;99.90
36416;DHT22;22447;44.530;18.620;2023-02-26T15:32:22;3.30;99.90
36416;DHT22;22447;44.530;18.620;2023-02-26T15:35:15;3.40;99.90
36416;DHT22;22447;44.530;18.620;2023-02-26T15:37:41;3.40;99.90
36416;DHT22;22447;44.530;18.620;2023-02-26T15:40:08;3.30;99.90
36416;DHT22;22447;44.530;18.620;2023-02-26T15:42:37;3.30;99.90
36416;DHT22;22447;44.530;18.620;2023-02-26T15:45:09;3.30;99.90
36416;DHT22;22447;44.530;18.620;2023-02-26T15:47:38;3.30;99.90
36416;DHT22;22447;44.530;18.620;2023-02-26T15:50:05;3.40;99.90
36416;DHT22;22447;44.530;18.620;2023-02-26T15:52:31;3.40;99.90
36416;DHT22;22447;44.530;18.620;2023-02-26T15:55:00;3.30;99.90
36416;DHT22;22447;44.530;18.620;2023-02-26T15:57:27;3.30;99.90
36416;DHT22;22447;44.530;18.620;2023-02-26T16:00:04;3.40;99.90
36416;DHT22;22447;44.530;18.620;2023-02-26T16:02:37;3.30;99.90
36416;DHT22;22447;44.530;18.620;2023-02-26T16:05:06;3.30;99.90
36416;DHT22;22447;44.530;18.620;2023-02-26T16:07:32;3.20;99.90
36416;DHT22;22447;44.530;18.620;2023-02-26T16:10:14;3.10;99.90
36416;DHT22;22447;44.530;18.620;2023-02-26T16:12:42;3.10;99.90
36416;DHT22;22447;44.530;18.620;2023-02-26T16:15:13;3.00;99.90
36416;DHT22;22447;44.530;18.620;2023-02-26T16:17:42;2.80;99.90
36416;DHT22;22447;44.530;18.620;2023-02-26T16:20:15;2.90;99.90
36416;DHT22;22447;44.530;18.620;2023-02-26T16:22:46;2.80;99.90
36416;DHT22;22447;44.530;18.620;2023-02-26T16:27:57;2.50;99.90
36416;DHT22;22447;44.530;18.620;2023-02-26T16:30:33;2.50;99.90
36416;DHT22;22447;44.530;18.620;2023-02-26T16:33:01;2.60;99.90
36416;DHT22;22447;44.530;18.620;2023-02-26T16:35:35;2.60;99.90
36416;DHT22;22447;44.530;18.620;2023-02-26T16:38:21;2.50;99.90
36416;DHT22;22447;44.530;18.620;2023-02-26T16:40:59;2.50;99.90
36416;DHT22;22447;44.530;18.620;2023-02-26T16:46:04;2.30;99.90
36416;DHT22;22447;44.530;18.620;2023-02-26T16:48:57;2.40;99.90
36416;DHT22;22447;44.530;18.620;2023-02-26T16:51:23;2.50;99.90
36416;DHT22;22447;44.530;18.620;2023-02-26T16:53:59;2.60;99.90
36416;DHT22;22447;44.530;18.620;2023-02-26T16:56:32;2.40;99.90
36416;DHT22;22447;44.530;18.620;2023-02-26T16:59:16;2.50;99.90
36416;DHT22;22447;44.530;18.620;2023-02-26T17:04:21;2.50;99.90
36416;DHT22;22447;44.530;18.620;2023-02-26T17:06:48;2.40;99.90
36416;DHT22;22447;44.530;18.620;2023-02-26T17:12:14;2.30;99.90
36416;DHT22;22447;44.530;18.620;2023-02-26T17:14:43;2.30;99.90
36416;DHT22;22447;44.530;18.620;2023-02-26T17:17:10;2.30;99.90
36416;DHT22;22447;44.530;18.620;2023-02-26T17:19:37;2.30;99.90
36416;DHT22;22447;44.530;18.620;2023-02-26T17:22:04;2.20;99.90
36416;DHT22;22447;44.530;18.620;2023-02-26T17:24:33;2.30;99.90
36416;DHT22;22447;44.530;18.620;2023-02-26T17:27:03;2.30;99.90
36416;DHT22;22447;44.530;18.620;2023-02-26T17:29:33;2.30;99.90
36416;DHT22;22447;44.530;18.620;2023-02-26T17:32:05;2.40;99.90
36416;DHT22;22447;44.530;18.620;2023-02-26T17:34:34;2.40;99.90
36416;DHT22;22447;44.530;18.620;2023-02-26T17:37:00;2.40;99.90
36416;DHT22;22447;44.530;18.620;2023-02-26T17:39:30;2.50;99.90
36416;DHT22;22447;44.530;18.620;2023-02-26T17:41:56;2.50;99.90
36416;DHT22;22447;44.530;18.620;2023-02-26T17:44:22;2.40;99.90
36416;DHT22;22447;44.530;18.620;2023-02-26T17:46:48;2.30;99.90
36416;DHT22;22447;44.530;18.620;2023-02-26T17:49:14;2.20;99.90
36416;DHT22;22447;44.530;18.620;2023-02-26T17:51:40;2.20;99.90
36416;DHT22;22447;44.530;18.620;2023-02-26T17:54:07;2.10;99.90
36416;DHT22;22447;44.530;18.620;2023-02-26T17:56:34;2.20;99.90
36416;DHT22;22447;44.530;18.620;2023-02-26T17:59:00;2.20;99.90
36416;DHT22;22447;44.530;18.620;2023-02-26T18:01:27;2.20;99.90
36416;DHT22;22447;44.530;18.620;2023-02-26T18:03:53;2.20;99.90
36416;DHT22;22447;44.530;18.620;2023-02-26T18:06:20;2.20;99.90
36416;DHT22;22447;44.530;18.620;2023-02-26T18:08:46;2.20;99.90
36416;DHT22;22447;44.530;18.620;2023-02-26T18:11:14;2.30;99.90
36416;DHT22;22447;44.530;18.620;2023-02-26T18:13:41;2.10;99.90
36416;DHT22;22447;44.530;18.620;2023-02-26T18:16:32;2.10;99.90
36416;DHT22;22447;44.530;18.620;2023-02-26T18:18:59;2.10;99.90
36416;DHT22;22447;44.530;18.620;2023-02-26T18:21:26;2.30;99.90
36416;DHT22;22447;44.530;18.620;2023-02-26T18:23:52;2.30;99.90
36416;DHT22;22447;44.530;18.620;2023-02-26T18:26:22;2.30;99.90
36416;DHT22;22447;44.530;18.620;2023-02-26T18:28:49;2.30;99.90
36416;DHT22;22447;44.530;18.620;2023-02-26T18:31:16;2.30;99.90
36416;DHT22;22447;44.530;18.620;2023-02-26T18:33:42;2.30;99.90
36416;DHT22;22447;44.530;18.620;2023-02-26T18:36:38;2.30;99.90
36416;DHT22;22447;44.530;18.620;2023-02-26T18:39:07;2.20;99.90
36416;DHT22;22447;44.530;18.620;2023-02-26T18:41:33;2.20;99.90
36416;DHT22;22447;44.530;18.620;2023-02-26T18:43:59;2.20;99.90
36416;DHT22;22447;44.530;18.620;2023-02-26T18:46:25;2.20;99.90
36416;DHT22;22447;44.530;18.620;2023-02-26T18:48:52;2.20;99.90
36416;DHT22;22447;44.530;18.620;2023-02-26T18:51:18;2.20;99.90
36416;DHT22;22447;44.530;18.620;2023-02-26T18:53:44;2.10;99.90
36416;DHT22;22447;44.530;18.620;2023-02-26T18:56:10;2.10;99.90
36416;DHT22;22447;44.530;18.620;2023-02-26T18:58:36;2.20;99.90
36416;DHT22;22447;44.530;18.620;2023-02-26T19:01:03;2.30;99.90
36416;DHT22;22447;44.530;18.620;2023-02-26T19:03:29;2.30;99.90
36416;DHT22;22447;44.530;18.620;2023-02-26T19:06:01;2.30;99.90
36416;DHT22;22447;44.530;18.620;2023-02-26T19:08:28;2.30;99.90
36416;DHT22;22447;44.530;18.620;2023-02-26T19:10:55;2.30;99.90
36416;DHT22;22447;44.530;18.620;2023-02-26T19:13:22;2.30;99.90
36416;DHT22;22447;44.530;18.620;2023-02-26T19:15:49;2.30;99.90
36416;DHT22;22447;44.530;18.620;2023-02-26T19:18:15;2.40;99.90
36416;DHT22;22447;44.530;18.620;2023-02-26T19:20:42;2.40;99.90
36416;DHT22;22447;44.530;18.620;2023-02-26T19:23:08;2.30;99.90
36416;DHT22;22447;44.530;18.620;2023-02-26T19:25:35;2.40;99.90
36416;DHT22;22447;44.530;18.620;2023-02-26T19:28:01;2.30;99.90
36416;DHT22;22447;44.530;18.620;2023-02-26T19:30:27;2.30;99.90
36416;DHT22;22447;44.530;18.620;2023-02-26T19:32:54;2.30;99.90
36416;DHT22;22447;44.530;18.620;2023-02-26T19:35:21;2.20;99.90
36416;DHT22;22447;44.530;18.620;2023-02-26T19:37:47;2.30;99.90
36416;DHT22;22447;44.530;18.620;2023-02-26T19:40:14;2.30;99.90
36416;DHT22;22447;44.530;18.620;2023-02-26T19:42:44;2.30;99.90
36416;DHT22;22447;44.530;18.620;2023-02-26T19:45:12;2.30;99.90
36416;DHT22;22447;44.530;18.620;2023-02-26T19:47:38;2.30;99.90
36416;DHT22;22447;44.530;18.620;2023-02-26T19:50:04;2.30;99.90
36416;DHT22;22447;44.530;18.620;2023-02-26T19:52:31;2.30;99.90